Time;durP1;ratioP1;P1;durP2;ratioP2;P2;SDS_P1;SDS_P2;PMS_P1;PMS_P2;Temp;Humidity;BMP_temperature;BMP_pressure;BME280_temperature;BME280_humidity;BME280_pressure;Samples;Min_cycle;Max_cycle;Signal;HPM_P1;HPM_P2
2022/08/23 00:04:40;;;;;;;;;;;;;;;22.08;41.35;95602.66;10321857;28;3053;-50
2022/08/23 00:09:40;;;;;;;;;;;;;;;22.11;41.29;95602.09;10336373;28;2874;-47
2022/08/23 00:14:48;;;;;;;;;;;;;;;22.12;41.43;95607.06;10322296;28;2913;-49
2022/08/23 00:19:48;;;;;;;;;;;;;;;22.13;41.32;95606.03;10321024;28;2412;-49
2022/08/23 00:24:48;;;;;;;;;;;;;;;22.15;41.30;95603.88;10321437;28;2907;-47
2022/08/23 00:29:52;;;;;;;;;;;;;;;22.13;41.43;95610.50;10320668;28;2394;-50
2022/08/23 00:34:53;;;;;;;;;;;;;;;22.13;41.46;95605.22;10325980;28;2874;-47
2022/08/23 00:39:53;;;;;;;;;;;;;;;22.14;41.65;95602.28;10321863;28;2816;-51
2022/08/23 00:50:12;;;;;;;;;;;;;;;22.14;41.83;95596.22;10318707;28;2878;-52
2022/08/23 00:55:12;;;;;;;;;;;;;;;22.14;41.71;95597.00;10321639;28;2489;-46
2022/08/23 01:00:13;;;;;;;;;;;;;;;22.13;41.81;95602.59;10320688;28;2874;-52
2022/08/23 01:05:13;;;;;;;;;;;;;;;22.11;41.76;95602.88;10322603;28;2803;-46
2022/08/23 01:10:16;;;;;;;;;;;;;;;22.09;41.81;95597.06;10329247;28;2942;-51
2022/08/23 01:15:36;;;;;;;;;;;;;;;22.09;42.04;95617.44;10326736;28;2431;-47
2022/08/23 01:20:57;;;;;;;;;;;;;;;22.07;41.85;95609.78;10322477;28;2939;-48
2022/08/23 01:25:57;;;;;;;;;;;;;;;22.08;41.77;95611.38;10324141;28;2868;-50
2022/08/23 01:30:57;;;;;;;;;;;;;;;22.06;41.98;95608.22;10320755;28;2967;-48
2022/08/23 01:36:08;;;;;;;;;;;;;;;22.06;42.00;95612.72;10321318;28;2895;-49
2022/08/23 01:41:09;;;;;;;;;;;;;;;22.04;42.33;95612.22;10327220;28;2389;-46
2022/08/23 01:46:20;;;;;;;;;;;;;;;22.02;42.52;95612.50;10327444;28;2441;-49
2022/08/23 01:51:21;;;;;;;;;;;;;;;22.01;42.42;95621.47;10328720;28;3297;-48
2022/08/23 01:56:21;;;;;;;;;;;;;;;21.96;42.68;95618.94;10327766;28;2912;-50
2022/08/23 02:01:22;;;;;;;;;;;;;;;21.99;43.06;95625.50;10325987;28;2859;-51
2022/08/23 02:06:22;;;;;;;;;;;;;;;22.01;42.64;95626.75;10325488;28;3063;-50
2022/08/23 02:11:23;;;;;;;;;;;;;;;22.03;42.42;95632.53;10325040;28;2909;-49
2022/08/23 02:16:27;;;;;;;;;;;;;;;22.07;42.65;95641.47;10325144;28;2946;-50
2022/08/23 02:21:30;;;;;;;;;;;;;;;22.05;42.77;95638.31;10322480;28;2958;-52
2022/08/23 02:26:30;;;;;;;;;;;;;;;22.07;42.51;95633.53;10323831;28;2880;-51
2022/08/23 02:31:31;;;;;;;;;;;;;;;22.08;42.39;95635.13;10325097;28;2951;-53
2022/08/23 02:36:32;;;;;;;;;;;;;;;22.09;42.61;95633.28;10322832;28;2899;-50
2022/08/23 02:41:32;;;;;;;;;;;;;;;22.09;42.76;95638.56;10321232;28;2867;-50
2022/08/23 02:46:33;;;;;;;;;;;;;;;22.08;42.29;95635.13;10324793;28;2907;-50
2022/08/23 02:51:33;;;;;;;;;;;;;;;22.08;42.29;95637.75;10324037;28;3059;-53
2022/08/23 02:56:34;;;;;;;;;;;;;;;22.09;42.40;95649.88;10322939;28;2914;-50
2022/08/23 03:01:35;;;;;;;;;;;;;;;22.09;42.34;95651.75;10321421;28;3178;-50
2022/08/23 03:06:35;;;;;;;;;;;;;;;22.08;42.26;95656.25;10323916;28;2374;-50
2022/08/23 03:11:37;;;;;;;;;;;;;;;22.08;42.24;95655.44;10323111;28;2382;-46
2022/08/23 03:16:37;;;;;;;;;;;;;;;22.07;42.50;95667.84;10320964;28;2879;-51
2022/08/23 03:21:41;;;;;;;;;;;;;;;22.08;42.32;95658.88;10322392;28;3081;-49
2022/08/23 03:26:42;;;;;;;;;;;;;;;22.05;42.54;95675.28;10321984;28;2874;-52
2022/08/23 03:31:43;;;;;;;;;;;;;;;22.06;42.29;95668.94;10327155;28;2420;-51
2022/08/23 03:36:43;;;;;;;;;;;;;;;22.05;42.69;95675.28;10322451;28;2952;-47
2022/08/23 03:41:44;;;;;;;;;;;;;;;22.02;42.28;95678.50;10323634;28;3098;-51
2022/08/23 03:46:45;;;;;;;;;;;;;;;21.98;42.27;95682.78;10324484;28;2978;-49
2022/08/23 03:51:45;;;;;;;;;;;;;;;22.01;42.36;95682.19;10323182;28;2477;-51
2022/08/23 03:56:50;;;;;;;;;;;;;;;21.96;42.26;95686.75;10321805;28;2990;-50
2022/08/23 04:01:50;;;;;;;;;;;;;;;21.91;42.41;95687.59;10320297;28;2961;-49
2022/08/23 04:06:50;;;;;;;;;;;;;;;21.87;42.47;95691.88;10319801;28;2983;-50
2022/08/23 04:11:51;;;;;;;;;;;;;;;21.84;42.62;95701.13;10320696;28;2836;-51
2022/08/23 04:16:52;;;;;;;;;;;;;;;21.79;42.51;95700.38;10320379;28;2498;-52
2022/08/23 04:21:52;;;;;;;;;;;;;;;21.76;42.58;95704.38;10320117;28;2957;-49
2022/08/23 04:26:52;;;;;;;;;;;;;;;21.81;42.78;95706.16;10320950;28;2890;-52
2022/08/23 04:31:53;;;;;;;;;;;;;;;21.81;42.53;95711.44;10317793;28;2929;-53
2022/08/23 04:36:59;;;;;;;;;;;;;;;21.80;42.59;95710.66;10320591;28;3066;-51
2022/08/23 04:42:18;;;;;;;;;;;;;;;21.79;42.56;95713.56;10316778;28;3232;-50
2022/08/23 04:47:19;;;;;;;;;;;;;;;21.83;42.58;95719.91;10319310;28;2874;-52
2022/08/23 04:52:20;;;;;;;;;;;;;;;21.88;42.58;95719.84;10319717;28;2944;-47
2022/08/23 04:57:20;;;;;;;;;;;;;;;21.87;42.41;95715.63;10322252;28;2911;-53
2022/08/23 05:02:21;;;;;;;;;;;;;;;21.88;42.45;95728.53;10320521;28;2829;-53
2022/08/23 05:07:21;;;;;;;;;;;;;;;21.92;42.34;95736.69;10320357;28;2850;-51
2022/08/23 05:12:21;;;;;;;;;;;;;;;21.92;42.34;95736.69;10319757;28;2855;-50
2022/08/23 05:17:22;;;;;;;;;;;;;;;21.93;42.41;95743.53;10321383;28;2964;-48
2022/08/23 05:22:22;;;;;;;;;;;;;;;21.90;42.64;95751.22;10317862;28;2863;-51
2022/08/23 05:27:22;;;;;;;;;;;;;;;21.89;42.70;95761.00;10320869;28;2437;-50
2022/08/23 05:32:24;;;;;;;;;;;;;;;21.85;43.31;95760.78;10320925;28;2958;-51
2022/08/23 05:37:24;;;;;;;;;;;;;;;21.82;43.15;95765.84;10313867;28;2855;-50
2022/08/23 05:42:24;;;;;;;;;;;;;;;21.81;43.49;95765.03;10316917;28;3017;-53
2022/08/23 05:47:26;;;;;;;;;;;;;;;21.77;43.84;95771.91;10336157;28;2476;-50
2022/08/23 05:52:27;;;;;;;;;;;;;;;21.80;44.05;95775.84;10321794;28;2843;-49
2022/08/23 05:57:27;;;;;;;;;;;;;;;21.78;44.25;95783.25;10327255;28;3183;-53
2022/08/23 06:02:27;;;;;;;;;;;;;;;21.74;44.17;95783.00;10323920;28;3303;-51
2022/08/23 06:07:27;;;;;;;;;;;;;;;21.75;44.40;95791.72;10326612;28;3024;-50
2022/08/23 06:12:29;;;;;;;;;;;;;;;21.73;44.70;95791.22;10328117;28;2900;-50
2022/08/23 06:17:29;;;;;;;;;;;;;;;21.68;44.52;95794.69;10327326;28;2975;-52
2022/08/23 06:22:30;;;;;;;;;;;;;;;21.67;44.87;95790.50;10325847;28;2858;-51
2022/08/23 06:27:30;;;;;;;;;;;;;;;21.66;44.99;95798.66;10332947;28;2561;-51
2022/08/23 06:32:30;;;;;;;;;;;;;;;21.65;44.93;95787.34;10328064;28;2891;-52
2022/08/23 06:37:30;;;;;;;;;;;;;;;21.70;44.80;95787.28;10325415;28;2904;-47
2022/08/23 06:42:31;;;;;;;;;;;;;;;21.66;44.64;95785.47;10323815;28;2955;-53
2022/08/23 06:47:31;;;;;;;;;;;;;;;21.65;44.72;95792.63;10322522;28;2903;-52
2022/08/23 06:52:31;;;;;;;;;;;;;;;21.69;44.73;95787.56;10324565;28;2883;-50
2022/08/23 06:57:32;;;;;;;;;;;;;;;21.66;45.00;95785.47;10325582;28;2877;-53
2022/08/23 07:02:32;;;;;;;;;;;;;;;21.64;44.80;95803.44;10321825;28;2822;-52
2022/08/23 07:07:33;;;;;;;;;;;;;;;21.69;45.01;95800.75;10325310;28;2521;-47
2022/08/23 07:12:36;;;;;;;;;;;;;;;21.73;44.63;95801.78;10323399;28;2987;-50
2022/08/23 07:17:36;;;;;;;;;;;;;;;21.72;44.49;95800.22;10325169;28;2970;-50
2022/08/23 07:22:37;;;;;;;;;;;;;;;21.77;44.74;95805.44;10322288;28;3082;-48
2022/08/23 07:27:37;;;;;;;;;;;;;;;21.82;44.39;95806.19;10325384;28;2790;-48
2022/08/23 07:32:39;;;;;;;;;;;;;;;21.88;44.20;95812.22;10321998;28;2893;-51
2022/08/23 07:37:39;;;;;;;;;;;;;;;21.88;44.24;95816.69;10323769;28;2980;-47
2022/08/23 07:42:39;;;;;;;;;;;;;;;21.87;44.18;95821.19;10320565;28;3148;-50
2022/08/23 07:47:41;;;;;;;;;;;;;;;21.92;44.09;95815.06;10324448;28;2993;-52
2022/08/23 07:52:41;;;;;;;;;;;;;;;21.98;43.89;95822.66;10322201;28;2929;-50
2022/08/23 07:57:41;;;;;;;;;;;;;;;22.00;43.96;95822.38;10323212;28;3061;-50
2022/08/23 08:02:42;;;;;;;;;;;;;;;21.95;43.68;95833.00;10320020;28;3378;-54
2022/08/23 08:07:43;;;;;;;;;;;;;;;21.85;43.46;95836.50;10321135;28;2421;-52
2022/08/23 08:12:43;;;;;;;;;;;;;;;21.88;43.42;95835.16;10322772;28;2381;-49
2022/08/23 08:17:47;;;;;;;;;;;;;;;21.84;43.39;95835.72;10321512;28;2939;-52
2022/08/23 08:22:47;;;;;;;;;;;;;;;21.77;42.93;95840.53;10322493;28;2908;-51
2022/08/23 08:27:47;;;;;;;;;;;;;;;21.80;42.95;95852.38;10322289;28;2891;-53
2022/08/23 08:32:48;;;;;;;;;;;;;;;21.86;43.18;95848.66;10319836;28;2800;-48
2022/08/23 08:37:48;;;;;;;;;;;;;;;21.93;43.23;95846.44;10317797;28;2980;-52
2022/08/23 08:43:04;;;;;;;;;;;;;;;22.00;43.02;95846.91;10324314;28;2882;-51
2022/08/23 08:48:05;;;;;;;;;;;;;;;22.07;43.18;95844.72;10303375;28;2473;-50
2022/08/23 08:53:22;;;;;;;;;;;;;;;22.11;43.26;95850.25;10321858;28;2861;-52
2022/08/23 08:58:32;;;;;;;;;;;;;;;22.14;43.30;95847.03;10316253;28;2883;-51
2022/08/23 09:03:33;;;;;;;;;;;;;;;22.17;43.00;95847.28;10285675;28;2983;-55
2022/08/23 09:08:56;;;;;;;;;;;;;;;22.17;42.52;95851.75;10318287;28;2445;-51
2022/08/23 09:14:11;;;;;;;;;;;;;;;22.19;42.39;95849.63;10317184;28;2887;-52
2022/08/23 09:19:11;;;;;;;;;;;;;;;22.24;43.05;95853.00;10321939;28;3570;-53
2022/08/23 09:24:12;;;;;;;;;;;;;;;22.29;42.86;95847.66;10324369;28;2902;-55
2022/08/23 09:29:18;;;;;;;;;;;;;;;22.31;42.57;95836.81;10328908;28;2902;-50
2022/08/23 09:34:36;;;;;;;;;;;;;;;22.34;42.68;95838.91;10327114;28;2998;-52
2022/08/23 09:39:37;;;;;;;;;;;;;;;22.35;42.52;95843.09;10329363;28;2818;-52
2022/08/23 09:44:39;;;;;;;;;;;;;;;22.38;41.57;95850.47;10326205;28;2847;-51
2022/08/23 09:49:40;;;;;;;;;;;;;;;22.38;42.07;95842.53;10323151;28;2930;-51
2022/08/23 09:54:40;;;;;;;;;;;;;;;22.41;41.83;95842.75;10324041;28;3007;-52
2022/08/23 09:59:42;;;;;;;;;;;;;;;22.42;41.56;95836.41;10326069;28;2890;-55
2022/08/23 10:04:45;;;;;;;;;;;;;;;22.44;41.50;95839.53;10326630;28;2958;-52
2022/08/23 10:09:46;;;;;;;;;;;;;;;22.46;41.40;95832.13;10326584;28;2975;-52
2022/08/23 10:14:46;;;;;;;;;;;;;;;22.49;41.96;95831.56;10325122;28;2966;-51
2022/08/23 10:20:04;;;;;;;;;;;;;;;22.49;41.11;95834.19;10328716;28;2839;-52
2022/08/23 10:25:11;;;;;;;;;;;;;;;22.49;40.63;95833.41;10326569;28;2963;-53
2022/08/23 10:30:18;;;;;;;;;;;;;;;22.53;41.18;95827.28;10325016;28;3171;-54
2022/08/23 10:35:24;;;;;;;;;;;;;;;22.54;41.60;95826.22;10325298;28;2740;-55
2022/08/23 10:40:27;;;;;;;;;;;;;;;22.57;41.30;95825.66;10325494;28;2847;-55
2022/08/23 10:45:29;;;;;;;;;;;;;;;22.57;41.37;95817.72;10326687;28;2877;-54
2022/08/23 10:50:31;;;;;;;;;;;;;;;22.56;40.95;95818.81;10324121;28;2879;-51
2022/08/23 10:55:42;;;;;;;;;;;;;;;22.63;41.10;95819.25;10323916;28;2919;-50
2022/08/23 11:00:43;;;;;;;;;;;;;;;22.63;41.04;95813.97;10325122;28;2895;-54
2022/08/23 11:05:43;;;;;;;;;;;;;;;22.64;41.11;95812.91;10310409;28;2908;-55
2022/08/23 11:10:46;;;;;;;;;;;;;;;22.63;40.13;95815.81;10324549;28;2989;-52
2022/08/23 11:16:00;;;;;;;;;;;;;;;22.66;40.34;95812.63;10325477;28;2378;-53
2022/08/23 11:21:07;;;;;;;;;;;;;;;22.67;40.76;95807.03;10325783;28;2434;-54
2022/08/23 11:26:09;;;;;;;;;;;;;;;22.70;40.72;95810.97;10320722;28;2966;-53
2022/08/23 11:31:17;;;;;;;;;;;;;;;22.68;38.25;95807.84;10316705;28;2840;-50
2022/08/23 11:36:20;;;;;;;;;;;;;;;22.71;39.32;95809.13;10324544;28;2859;-51
2022/08/23 11:41:27;;;;;;;;;;;;;;;22.74;40.04;95806.69;10324624;28;2492;-53
2022/08/23 11:46:30;;;;;;;;;;;;;;;22.74;40.20;95805.91;10322772;28;2887;-52
2022/08/23 11:51:49;;;;;;;;;;;;;;;22.73;39.64;95807.75;10322074;28;2845;-51
2022/08/23 11:56:55;;;;;;;;;;;;;;;22.72;39.61;95808.03;10320344;28;2890;-52
2022/08/23 12:01:55;;;;;;;;;;;;;;;22.71;39.41;95809.13;10319711;28;2975;-51
2022/08/23 12:07:00;;;;;;;;;;;;;;;22.72;39.57;95797.47;10321850;28;3379;-54
2022/08/23 12:12:01;;;;;;;;;;;;;;;22.75;39.57;95800.31;10321805;28;2997;-54
2022/08/23 12:17:27;;;;;;;;;;;;;;;22.79;39.67;95805.84;10324382;28;2891;-51
2022/08/23 12:22:29;;;;;;;;;;;;;;;22.78;39.25;95802.41;10322470;28;3005;-52
2022/08/23 12:27:35;;;;;;;;;;;;;;;22.78;39.43;95805.06;10328137;28;2413;-51
2022/08/23 12:32:44;;;;;;;;;;;;;;;22.80;39.69;95804.75;10322057;28;2906;-50
2022/08/23 12:37:47;;;;;;;;;;;;;;;22.80;38.49;95802.13;10320594;28;2896;-48
2022/08/23 12:42:50;;;;;;;;;;;;;;;22.82;38.82;95802.63;10323773;28;2867;-49
2022/08/23 12:47:57;;;;;;;;;;;;;;;22.83;39.18;95806.84;10319729;28;2824;-53
2022/08/23 12:53:08;;;;;;;;;;;;;;;22.83;38.85;95801.56;10320788;28;2903;-54
2022/08/23 12:58:08;;;;;;;;;;;;;;;22.85;38.76;95794.91;10322521;28;2930;-51
2022/08/23 13:03:12;;;;;;;;;;;;;;;22.83;38.77;95794.41;10322301;28;3211;-53
2022/08/23 13:08:17;;;;;;;;;;;;;;;22.87;39.07;95778.75;10329342;28;3011;-55
2022/08/23 13:13:24;;;;;;;;;;;;;;;22.88;38.96;95785.59;10331122;28;2912;-54
2022/08/23 13:18:26;;;;;;;;;;;;;;;22.89;39.01;95772.13;10328520;28;2907;-50
2022/08/23 13:23:26;;;;;;;;;;;;;;;22.88;39.23;95775.81;10331010;28;2428;-52
2022/08/23 13:28:27;;;;;;;;;;;;;;;22.91;38.70;95777.13;10328529;28;2912;-51
2022/08/23 13:33:28;;;;;;;;;;;;;;;22.91;39.12;95769.97;10326519;28;2909;-54
2022/08/23 13:38:29;;;;;;;;;;;;;;;22.92;39.20;95763.59;10326453;28;3004;-54
2022/08/23 13:43:44;;;;;;;;;;;;;;;22.92;39.35;95760.97;10328957;28;2873;-51
2022/08/23 13:48:46;;;;;;;;;;;;;;;22.92;39.25;95758.31;10323967;28;2441;-51
2022/08/23 13:53:46;;;;;;;;;;;;;;;22.94;39.45;95756.16;10328017;28;2927;-50
2022/08/23 13:58:54;;;;;;;;;;;;;;;22.96;39.40;95753.22;10326424;28;3026;-51
2022/08/23 14:03:54;;;;;;;;;;;;;;;22.96;39.45;95754.03;10327900;28;2919;-51
2022/08/23 14:08:54;;;;;;;;;;;;;;;22.96;38.96;95755.88;10324729;28;2908;-55
2022/08/23 14:13:55;;;;;;;;;;;;;;;22.97;39.06;95749.53;10328712;28;3023;-51
2022/08/23 14:18:55;;;;;;;;;;;;;;;22.94;39.02;95748.25;10326346;28;2965;-53
2022/08/23 14:23:56;;;;;;;;;;;;;;;22.95;38.99;95754.31;10327546;28;2979;-53
2022/08/23 14:28:56;;;;;;;;;;;;;;;22.96;38.86;95742.66;10326526;28;2429;-52
2022/08/23 14:33:56;;;;;;;;;;;;;;;22.97;38.95;95744.25;10327919;28;3025;-51
2022/08/23 14:38:56;;;;;;;;;;;;;;;22.97;38.95;95738.94;10324353;28;2857;-52
2022/08/23 14:43:57;;;;;;;;;;;;;;;22.96;38.76;95753.22;10325530;28;2882;-53
2022/08/23 14:48:57;;;;;;;;;;;;;;;22.96;38.43;95751.38;10325129;28;2390;-50
2022/08/23 14:53:58;;;;;;;;;;;;;;;22.95;38.49;95744.53;10321034;28;2445;-54
2022/08/23 14:58:59;;;;;;;;;;;;;;;22.96;38.49;95747.94;10323007;28;3022;-51
2022/08/23 15:04:00;;;;;;;;;;;;;;;22.95;38.40;95743.75;10325668;28;2413;-55
2022/08/23 15:09:00;;;;;;;;;;;;;;;22.92;37.38;95750.38;10325610;28;2894;-53
2022/08/23 15:14:01;;;;;;;;;;;;;;;22.94;37.68;95748.25;10326397;28;2512;-51
2022/08/23 15:19:01;;;;;;;;;;;;;;;22.95;37.84;95743.75;10325242;28;2946;-53
2022/08/23 15:24:01;;;;;;;;;;;;;;;22.95;37.53;95743.75;10329234;28;2987;-51
2022/08/23 15:29:02;;;;;;;;;;;;;;;22.94;37.57;95737.66;10325697;28;2999;-52
2022/08/23 15:34:02;;;;;;;;;;;;;;;22.92;37.43;95737.16;10329771;28;2899;-53
2022/08/23 15:39:03;;;;;;;;;;;;;;;22.89;36.62;95736.97;10312880;28;3084;-53
2022/08/23 15:44:04;;;;;;;;;;;;;;;22.92;37.45;95736.38;10322644;28;2855;-52
2022/08/23 15:49:14;;;;;;;;;;;;;;;22.95;37.56;95735.81;10319069;28;2881;-53
2022/08/23 15:54:14;;;;;;;;;;;;;;;22.95;37.33;95747.19;10335786;28;2833;-54
2022/08/23 15:59:24;;;;;;;;;;;;;;;22.95;37.65;95741.09;10318005;28;2893;-51
2022/08/23 16:04:25;;;;;;;;;;;;;;;22.95;37.79;95738.47;10319196;28;2848;-51
2022/08/23 16:09:35;;;;;;;;;;;;;;;22.95;37.79;95741.91;10318045;28;2834;-52
2022/08/23 16:14:43;;;;;;;;;;;;;;;22.93;37.71;95744.03;10318882;28;2953;-49
2022/08/23 16:19:43;;;;;;;;;;;;;;;22.95;37.31;95741.09;10320082;28;2959;-50
2022/08/23 16:24:54;;;;;;;;;;;;;;;22.93;37.39;95741.41;10319693;28;2410;-53
2022/08/23 16:30:04;;;;;;;;;;;;;;;22.91;37.32;95750.69;10319347;28;2883;-54
2022/08/23 16:35:06;;;;;;;;;;;;;;;22.94;37.29;95752.72;10317337;28;2982;-52
2022/08/23 16:40:11;;;;;;;;;;;;;;;22.96;37.10;95751.38;10316810;28;2916;-54
2022/08/23 16:45:11;;;;;;;;;;;;;;;22.93;37.52;95751.97;10319987;28;2871;-49
2022/08/23 16:50:12;;;;;;;;;;;;;;;22.94;37.22;95758.03;10317866;28;2856;-53
2022/08/23 16:55:13;;;;;;;;;;;;;;;22.96;37.27;95756.66;10313509;28;3180;-53
2022/08/23 17:00:15;;;;;;;;;;;;;;;22.98;37.64;95761.69;10319276;28;2942;-50
2022/08/23 17:05:16;;;;;;;;;;;;;;;22.96;37.74;95761.97;10312991;28;2893;-53
2022/08/23 17:10:16;;;;;;;;;;;;;;;22.92;37.55;95762.81;10317563;28;2899;-55
2022/08/23 17:15:27;;;;;;;;;;;;;;;22.91;37.34;95761.25;10312061;28;2824;-52
2022/08/23 17:20:28;;;;;;;;;;;;;;;22.96;37.53;95761.97;10307847;28;2837;-54
2022/08/23 17:25:29;;;;;;;;;;;;;;;22.93;37.58;95765.19;10312064;28;2435;-52
2022/08/23 17:30:29;;;;;;;;;;;;;;;22.93;37.59;95769.69;10316145;28;2794;-54
2022/08/23 17:35:30;;;;;;;;;;;;;;;22.95;38.12;95770.19;10312899;28;2922;-52
2022/08/23 17:40:32;;;;;;;;;;;;;;;22.97;38.22;95775.97;10315727;28;2425;-54
2022/08/23 17:45:45;;;;;;;;;;;;;;;23.00;38.13;95775.41;10317643;28;2875;-55
2022/08/23 17:50:47;;;;;;;;;;;;;;;22.99;38.45;95773.81;10317817;28;2897;-52
2022/08/23 17:55:47;;;;;;;;;;;;;;;23.03;38.47;95780.09;10322371;28;2874;-51
2022/08/23 18:00:48;;;;;;;;;;;;;;;23.05;38.63;95791.16;10322058;28;2889;-54
2022/08/23 18:05:48;;;;;;;;;;;;;;;23.04;38.69;95787.72;10322298;28;2389;-53
2022/08/23 18:10:48;;;;;;;;;;;;;;;23.01;38.58;95798.09;10337518;28;2867;-55
2022/08/23 18:15:48;;;;;;;;;;;;;;;23.00;38.66;95809.78;10323986;28;2504;-55
2022/08/23 18:20:49;;;;;;;;;;;;;;;23.03;38.94;95809.19;10327954;28;2893;-56
2022/08/23 18:25:49;;;;;;;;;;;;;;;23.01;38.79;95814.75;10322124;28;2979;-55
2022/08/23 18:30:50;;;;;;;;;;;;;;;23.00;38.76;95818.47;10320792;28;2879;-55
2022/08/23 18:35:51;;;;;;;;;;;;;;;23.02;39.03;95826.91;10322531;28;2897;-53
2022/08/23 18:40:51;;;;;;;;;;;;;;;23.01;39.07;95825.34;10321783;28;2898;-51
2022/08/23 18:45:52;;;;;;;;;;;;;;;23.01;38.85;95829.84;10322586;28;2864;-54
2022/08/23 18:50:52;;;;;;;;;;;;;;;23.02;39.05;95837.47;10322017;28;2943;-56
2022/08/23 18:55:53;;;;;;;;;;;;;;;23.03;39.32;95839.06;10319653;28;2958;-56
2022/08/23 19:00:53;;;;;;;;;;;;;;;23.02;39.13;95850.69;10320210;28;2882;-56
2022/08/23 19:05:54;;;;;;;;;;;;;;;23.01;39.36;95850.97;10320017;28;2941;-54
2022/08/23 19:10:54;;;;;;;;;;;;;;;23.05;39.55;95860.72;10320934;28;2903;-56
2022/08/23 19:15:55;;;;;;;;;;;;;;;23.07;39.53;95857.78;10319872;28;2903;-55
2022/08/23 19:20:55;;;;;;;;;;;;;;;23.09;39.53;95867.00;10320167;28;3062;-58
2022/08/23 19:26:03;;;;;;;;;;;;;;;23.11;39.52;95877.28;10318456;28;2444;-55
2022/08/23 19:31:13;;;;;;;;;;;;;;;23.12;39.79;95876.97;10319947;28;2990;-56
2022/08/23 19:36:24;;;;;;;;;;;;;;;23.10;39.90;95873.06;10318157;28;2902;-54
2022/08/23 19:41:35;;;;;;;;;;;;;;;23.10;39.74;95883.66;10319254;28;2887;-55
2022/08/23 19:46:39;;;;;;;;;;;;;;;23.10;40.13;95886.28;10314870;28;2885;-55
2022/08/23 19:51:40;;;;;;;;;;;;;;;23.13;40.14;95889.16;10316969;28;2832;-55
2022/08/23 19:56:47;;;;;;;;;;;;;;;23.13;40.22;95891.78;10315681;28;2516;-56
2022/08/23 20:01:57;;;;;;;;;;;;;;;23.16;40.35;95899.13;10319065;28;3133;-54
2022/08/23 20:06:59;;;;;;;;;;;;;;;23.15;40.47;95896.78;10318965;28;2491;-55
2022/08/23 20:12:00;;;;;;;;;;;;;;;23.14;40.71;95900.50;10318211;28;3231;-53
2022/08/23 20:17:03;;;;;;;;;;;;;;;23.13;40.83;95905.00;10318877;28;3319;-54
2022/08/23 20:27:22;;;;;;;;;;;;;;;23.15;41.00;95910.00;10319346;28;3119;-55
2022/08/23 20:32:22;;;;;;;;;;;;;;;23.18;41.09;95909.44;10317679;28;3173;-54
2022/08/23 20:37:23;;;;;;;;;;;;;;;23.19;40.89;95905.72;10326947;28;3121;-54
2022/08/23 20:42:23;;;;;;;;;;;;;;;23.20;40.98;95917.88;10316548;28;3143;-55
2022/08/23 20:47:23;;;;;;;;;;;;;;;23.21;41.05;95924.72;10314716;28;3272;-55
2022/08/23 20:52:23;;;;;;;;;;;;;;;23.22;41.21;95927.09;10316597;28;3312;-55
2022/08/23 20:57:24;;;;;;;;;;;;;;;23.22;41.41;95921.81;10317020;28;3122;-54
2022/08/23 21:02:24;;;;;;;;;;;;;;;23.23;41.32;95912.00;10317090;28;3118;-54
2022/08/23 21:07:25;;;;;;;;;;;;;;;23.22;41.63;95913.88;10317519;28;3114;-55
2022/08/23 21:12:25;;;;;;;;;;;;;;;23.24;41.61;95913.59;10316468;28;3190;-55
2022/08/23 21:17:25;;;;;;;;;;;;;;;23.24;41.48;95918.88;10317781;28;3142;-56
2022/08/23 21:22:26;;;;;;;;;;;;;;;23.24;41.75;95911.75;10320727;28;2441;-53
2022/08/23 21:27:26;;;;;;;;;;;;;;;23.25;41.49;95915.16;10329460;28;3229;-54
2022/08/23 21:32:27;;;;;;;;;;;;;;;23.25;41.76;95917.78;10323768;28;3312;-56
2022/08/23 21:37:27;;;;;;;;;;;;;;;23.25;41.92;95915.16;10327258;28;2396;-53
2022/08/23 21:42:29;;;;;;;;;;;;;;;23.24;41.89;95909.09;10334043;28;3230;-54
2022/08/23 21:47:29;;;;;;;;;;;;;;;23.25;41.49;95909.84;10337615;28;3125;-54
2022/08/23 21:52:29;;;;;;;;;;;;;;;23.25;41.90;95907.22;10325124;28;3247;-56
2022/08/23 21:57:30;;;;;;;;;;;;;;;23.24;41.62;95906.44;10335717;28;3154;-52
2022/08/23 22:02:30;;;;;;;;;;;;;;;23.24;41.79;95897.72;10330097;28;3134;-56
2022/08/23 22:07:31;;;;;;;;;;;;;;;23.25;42.01;95925.72;10325523;28;3139;-55
2022/08/23 22:12:32;;;;;;;;;;;;;;;23.20;41.68;95915.25;10326365;28;3178;-55
2022/08/23 22:17:32;;;;;;;;;;;;;;;23.21;42.11;95922.09;10326351;28;3158;-55
2022/08/23 22:22:32;;;;;;;;;;;;;;;23.21;41.99;95922.09;10328869;28;3147;-56
2022/08/23 22:27:33;;;;;;;;;;;;;;;23.21;42.00;95916.78;10326252;28;3121;-55
2022/08/23 22:32:33;;;;;;;;;;;;;;;23.21;42.06;95919.44;10324957;28;3324;-55
2022/08/23 22:37:36;;;;;;;;;;;;;;;23.21;41.97;95928.16;10326997;28;3147;-51
2022/08/23 22:42:37;;;;;;;;;;;;;;;23.21;42.12;95920.22;10324030;28;2421;-54
2022/08/23 22:47:37;;;;;;;;;;;;;;;23.21;41.93;95927.38;10326741;28;3114;-56
2022/08/23 22:52:39;;;;;;;;;;;;;;;23.21;41.84;95914.16;10327223;28;3135;-54
2022/08/23 22:57:40;;;;;;;;;;;;;;;23.21;42.24;95917.59;10325062;28;3163;-57
2022/08/23 23:02:40;;;;;;;;;;;;;;;23.21;41.87;95922.88;10328199;28;3139;-55
2022/08/23 23:12:59;;;;;;;;;;;;;;;23.19;42.07;95918.94;10322602;28;3158;-56
2022/08/23 23:17:59;;;;;;;;;;;;;;;23.19;41.98;95909.16;10325405;28;3142;-53
2022/08/23 23:23:00;;;;;;;;;;;;;;;23.20;42.27;95907.31;10325784;28;2395;-55
2022/08/23 23:28:01;;;;;;;;;;;;;;;23.20;42.28;95908.09;10324645;28;3113;-56
2022/08/23 23:33:01;;;;;;;;;;;;;;;23.20;42.11;95902.81;10323591;28;3296;-55
2022/08/23 23:38:02;;;;;;;;;;;;;;;23.20;42.13;95907.31;10321639;28;3143;-56
2022/08/23 23:43:03;;;;;;;;;;;;;;;23.19;42.26;95895.13;10325065;28;2428;-55
2022/08/23 23:48:03;;;;;;;;;;;;;;;23.20;42.26;95888.78;10321914;28;2448;-56
2022/08/23 23:53:03;;;;;;;;;;;;;;;23.20;41.98;95892.22;10321972;28;3179;-55
2022/08/23 23:58:04;;;;;;;;;;;;;;;23.21;42.31;95890.34;10323872;28;3130;-56
